createdAt,value
2022-12-12T00:00:30.560Z,24.90
2022-12-12T00:01:04.639Z,26.00
2022-12-12T00:01:40.988Z,24.67
2022-12-12T00:02:15.417Z,25.17
2022-12-12T00:02:48.252Z,27.23
2022-12-12T00:03:20.223Z,26.95
2022-12-12T00:03:52.349Z,28.05
2022-12-12T00:04:23.948Z,27.52
2022-12-12T00:04:58.296Z,25.27
2022-12-12T00:05:29.979Z,26.08
2022-12-12T00:06:09.249Z,29.35
2022-12-12T00:06:40.971Z,29.63
2022-12-12T00:07:14.133Z,29.75
2022-12-12T00:07:45.653Z,28.60
2022-12-12T00:08:17.235Z,28.20
2022-12-12T00:08:49.416Z,25.85
2022-12-12T00:09:20.937Z,29.23
2022-12-12T00:09:52.647Z,27.40
2022-12-12T00:10:24.284Z,28.00
2022-12-12T00:10:56.222Z,27.25
2022-12-12T00:11:27.965Z,31.05
2022-12-12T00:12:02.260Z,27.17
2022-12-12T00:12:34.068Z,30.13
2022-12-12T00:13:05.619Z,28.30
2022-12-12T00:13:37.659Z,30.70
2022-12-12T00:14:09.353Z,26.98
2022-12-12T00:14:40.809Z,27.45
2022-12-12T00:15:12.778Z,32.17
2022-12-12T00:15:47.758Z,28.00
2022-12-12T00:16:19.423Z,27.23
2022-12-12T00:16:51.111Z,29.92
2022-12-12T00:17:27.727Z,31.10
2022-12-12T00:17:59.152Z,28.17
2022-12-12T00:18:31.021Z,28.35
2022-12-12T00:19:02.604Z,27.45
2022-12-12T00:19:34.128Z,25.65
2022-12-12T00:20:06.442Z,29.15
2022-12-12T00:20:38.105Z,29.30
2022-12-12T00:21:22.471Z,27.30
2022-12-12T00:21:54.023Z,27.42
2022-12-12T00:22:25.894Z,28.90
2022-12-12T00:22:57.748Z,26.73
2022-12-12T00:23:29.374Z,26.88
2022-12-12T00:24:01.026Z,27.83
2022-12-12T00:24:32.493Z,27.58
2022-12-12T00:25:05.776Z,28.40
2022-12-12T00:25:37.480Z,27.55
2022-12-12T00:26:31.186Z,25.88
2022-12-12T00:27:02.714Z,27.37
2022-12-12T00:27:34.528Z,27.67
2022-12-12T00:28:08.432Z,27.30
2022-12-12T00:28:41.259Z,25.30
2022-12-12T00:29:12.930Z,29.55
2022-12-12T00:29:44.751Z,27.20
2022-12-12T00:30:16.277Z,28.23
2022-12-12T00:30:48.046Z,28.48
2022-12-12T00:31:19.769Z,26.10
2022-12-12T00:31:51.632Z,29.73
2022-12-12T00:32:25.950Z,25.20
2022-12-12T00:32:59.992Z,25.50
2022-12-12T00:33:34.030Z,29.92
2022-12-12T00:34:05.609Z,30.50
2022-12-12T00:34:39.653Z,27.05
2022-12-12T00:35:13.836Z,26.38
2022-12-12T00:35:49.015Z,29.02
2022-12-12T00:36:24.230Z,27.50
2022-12-12T00:36:58.817Z,31.40
2022-12-12T00:37:31.452Z,31.02
2022-12-12T00:38:05.447Z,26.13
2022-12-12T00:38:37.316Z,26.88
2022-12-12T00:39:12.544Z,29.92
2022-12-12T00:39:46.998Z,27.27
2022-12-12T00:40:18.692Z,26.02
2022-12-12T00:40:50.479Z,26.27
2022-12-12T00:41:23.011Z,28.63
2022-12-12T00:41:54.663Z,28.95
2022-12-12T00:42:27.448Z,29.05
2022-12-12T00:42:59.061Z,28.80
2022-12-12T00:43:30.679Z,29.70
2022-12-12T00:44:05.336Z,27.40
2022-12-12T00:44:39.443Z,25.90
2022-12-12T00:45:11.689Z,29.60
2022-12-12T00:45:45.833Z,24.50
2022-12-12T00:46:21.435Z,24.52
2022-12-12T00:46:55.701Z,27.33
2022-12-12T00:47:29.693Z,26.38
2022-12-12T00:48:01.266Z,27.13
2022-12-12T00:48:34.940Z,29.10
2022-12-12T00:49:06.575Z,27.07
2022-12-12T00:49:38.017Z,26.52
2022-12-12T00:50:10.052Z,28.83
2022-12-12T00:50:43.589Z,28.17
2022-12-12T00:51:20.822Z,25.02
2022-12-12T00:51:52.388Z,28.58
2022-12-12T00:52:26.940Z,26.38
2022-12-12T00:52:58.529Z,28.23
2022-12-12T00:53:30.564Z,28.80
2022-12-12T00:54:02.108Z,26.58
2022-12-12T00:54:36.957Z,27.37
2022-12-12T00:55:12.584Z,27.30
2022-12-12T00:55:44.123Z,27.40
2022-12-12T00:56:16.908Z,26.88
2022-12-12T00:56:50.751Z,29.45
2022-12-12T00:57:22.293Z,26.33
2022-12-12T00:57:53.912Z,26.15
2022-12-12T00:58:26.301Z,29.95
2022-12-12T00:58:57.878Z,30.48
2022-12-12T00:59:29.470Z,29.00
2022-12-12T01:00:01.166Z,27.33
2022-12-12T01:00:34.070Z,25.90
2022-12-12T01:01:11.090Z,31.63
2022-12-12T01:01:44.917Z,28.65
2022-12-12T01:02:16.664Z,26.80
2022-12-12T01:02:48.909Z,29.92
2022-12-12T01:03:21.729Z,26.77
2022-12-12T01:03:54.118Z,29.42
2022-12-12T01:04:25.557Z,27.67
2022-12-12T01:04:56.968Z,25.13
2022-12-12T01:05:28.836Z,27.23
2022-12-12T01:06:02.614Z,27.48
2022-12-12T01:06:36.968Z,25.95
2022-12-12T01:07:09.048Z,25.90
2022-12-12T01:07:41.061Z,26.60
2022-12-12T01:08:12.640Z,27.88
2022-12-12T01:08:44.372Z,28.35
2022-12-12T01:09:18.092Z,29.85
2022-12-12T01:09:49.709Z,30.48
2022-12-12T01:10:21.227Z,30.73
2022-12-12T01:10:52.869Z,29.83
2022-12-12T01:11:24.589Z,28.58
2022-12-12T01:11:56.296Z,28.23
2022-12-12T01:12:27.832Z,25.85
2022-12-12T01:12:59.247Z,26.45
2022-12-12T01:13:31.346Z,27.88
2022-12-12T01:14:02.919Z,27.08
2022-12-12T01:14:34.612Z,28.50
2022-12-12T01:15:08.212Z,26.55
2022-12-12T01:15:39.831Z,26.90
2022-12-12T01:16:12.643Z,31.53
2022-12-12T01:16:46.247Z,25.92
2022-12-12T01:17:17.873Z,31.20
2022-12-12T01:17:49.340Z,27.45
2022-12-12T01:18:21.399Z,27.45
2022-12-12T01:18:53.079Z,32.90
2022-12-12T01:19:27.652Z,30.08
2022-12-12T01:19:59.170Z,31.17
2022-12-12T01:20:33.553Z,32.45
2022-12-12T01:21:11.606Z,27.58
2022-12-12T01:21:43.094Z,24.53
2022-12-12T01:22:14.610Z,29.88
2022-12-12T01:22:46.460Z,28.83
2022-12-12T01:23:18.087Z,31.98
2022-12-12T01:23:50.151Z,31.73
2022-12-12T01:24:21.904Z,25.65
2022-12-12T01:24:56.884Z,27.50
2022-12-12T01:25:28.296Z,28.60
2022-12-12T01:26:12.292Z,27.17
2022-12-12T01:26:43.852Z,29.30
2022-12-12T01:27:16.785Z,27.23
2022-12-12T01:27:48.637Z,29.45
2022-12-12T01:28:22.811Z,30.55
2022-12-12T01:28:54.478Z,26.30
2022-12-12T01:29:28.647Z,28.83
2022-12-12T01:30:02.413Z,30.73
2022-12-12T01:30:34.305Z,29.85
2022-12-12T01:31:06.404Z,29.15
2022-12-12T01:31:38.345Z,26.63
2022-12-12T01:32:11.714Z,30.50
2022-12-12T01:32:43.348Z,29.00
2022-12-12T01:33:15.107Z,30.20
2022-12-12T01:33:46.991Z,29.13
2022-12-12T01:34:18.582Z,29.48
2022-12-12T01:34:50.188Z,30.70
2022-12-12T01:35:23.435Z,26.70
2022-12-12T01:35:55.288Z,28.85
2022-12-12T01:36:26.797Z,31.98
2022-12-12T01:36:58.531Z,28.63
2022-12-12T01:37:30.121Z,30.83
2022-12-12T01:38:01.688Z,30.03
2022-12-12T01:38:33.643Z,25.80
2022-12-12T01:39:05.880Z,29.17
2022-12-12T01:39:37.580Z,27.50
2022-12-12T01:40:15.949Z,31.17
2022-12-12T01:40:47.531Z,30.05
2022-12-12T01:41:19.234Z,27.92
2022-12-12T01:41:50.719Z,28.73
2022-12-12T01:42:22.347Z,28.48
2022-12-12T01:42:55.120Z,28.10
2022-12-12T01:43:28.411Z,31.17
2022-12-12T01:44:11.485Z,30.05
2022-12-12T01:44:46.575Z,26.25
2022-12-12T01:45:55.775Z,29.20
2022-12-12T01:46:42.808Z,27.48
2022-12-12T01:47:17.755Z,29.70
2022-12-12T01:47:49.145Z,28.27
2022-12-12T01:48:22.724Z,27.92
2022-12-12T01:48:58.691Z,28.50
2022-12-12T01:49:31.253Z,28.17
2022-12-12T01:50:07.716Z,28.83
2022-12-12T01:50:40.898Z,26.55
2022-12-12T01:51:19.800Z,27.45
2022-12-12T01:51:59.531Z,29.48
2022-12-12T01:52:39.739Z,26.50
2022-12-12T01:53:14.255Z,31.15
2022-12-12T01:53:49.818Z,28.65
2022-12-12T01:54:27.703Z,29.95
2022-12-12T01:55:05.653Z,25.90
2022-12-12T01:55:37.319Z,27.42
2022-12-12T01:56:12.514Z,30.63
2022-12-12T01:56:46.155Z,31.27
2022-12-12T01:57:23.641Z,30.70
2022-12-12T01:57:57.186Z,30.25
2022-12-12T01:58:30.338Z,28.65
2022-12-12T01:59:07.229Z,30.67
2022-12-12T01:59:40.052Z,30.58
2022-12-12T02:00:18.424Z,28.80
2022-12-12T02:00:52.506Z,32.08
2022-12-12T02:01:25.192Z,27.30
2022-12-12T02:01:57.047Z,28.77
2022-12-12T02:02:30.298Z,30.13
2022-12-12T02:03:05.027Z,29.08
2022-12-12T02:03:37.513Z,26.88
2022-12-12T02:04:09.702Z,29.65
2022-12-12T02:04:42.025Z,29.10
2022-12-12T02:05:24.082Z,31.25
2022-12-12T02:06:00.236Z,30.38
2022-12-12T02:06:31.987Z,28.75
2022-12-12T02:07:03.785Z,27.67
2022-12-12T02:07:35.546Z,29.00
2022-12-12T02:08:09.630Z,27.13
2022-12-12T02:08:41.988Z,30.40
2022-12-12T02:09:15.928Z,31.67
2022-12-12T02:09:50.895Z,29.90
2022-12-12T02:10:22.441Z,28.98
2022-12-12T02:10:54.226Z,30.67
2022-12-12T02:11:28.803Z,28.40
2022-12-12T02:12:06.819Z,27.80
2022-12-12T02:12:38.510Z,28.58
2022-12-12T02:13:15.271Z,31.57
2022-12-12T02:13:49.406Z,28.20
2022-12-12T02:14:25.099Z,30.42
2022-12-12T02:14:57.110Z,32.85
2022-12-12T02:15:37.015Z,29.63
2022-12-12T02:16:08.800Z,28.58
2022-12-12T02:17:08.338Z,30.65
2022-12-12T02:18:03.505Z,26.58
2022-12-12T02:18:51.946Z,30.52
2022-12-12T02:19:32.384Z,28.38
2022-12-12T02:20:25.476Z,30.90
2022-12-12T02:21:06.124Z,27.52
2022-12-12T02:22:00.193Z,29.50
2022-12-12T02:22:50.378Z,23.92
2022-12-12T02:23:46.516Z,26.23
2022-12-12T02:24:36.617Z,27.85
2022-12-12T02:25:25.967Z,27.75
2022-12-12T02:25:57.465Z,28.20
2022-12-12T02:26:59.958Z,27.50
2022-12-12T02:28:19.925Z,29.20
2022-12-12T02:29:32.944Z,26.60
2022-12-12T02:30:07.796Z,27.48
2022-12-12T02:31:00.587Z,28.05
2022-12-12T02:31:53.806Z,26.30
2022-12-12T02:32:37.299Z,26.65
2022-12-12T02:33:47.415Z,27.73
2022-12-12T02:34:45.377Z,29.58
2022-12-12T02:35:51.011Z,23.92
2022-12-12T02:36:49.397Z,30.02
2022-12-12T02:37:31.508Z,27.98
2022-12-12T02:38:08.505Z,25.57
2022-12-12T02:38:51.607Z,27.42
2022-12-12T02:39:39.109Z,27.50
2022-12-12T02:40:20.644Z,30.35
2022-12-12T02:41:22.697Z,28.92
2022-12-12T02:42:00.390Z,27.48
2022-12-12T02:42:44.189Z,32.08
2022-12-12T02:43:34.593Z,27.55
2022-12-12T02:44:31.352Z,26.58
2022-12-12T02:45:16.232Z,27.55
2022-12-12T02:45:54.747Z,30.77
2022-12-12T02:46:38.185Z,30.95
2022-12-12T02:47:23.138Z,27.10
2022-12-12T02:48:24.706Z,28.98
2022-12-12T02:49:11.471Z,27.25
2022-12-12T02:49:47.649Z,25.58
2022-12-12T02:50:24.587Z,28.10
2022-12-12T02:51:00.422Z,28.13
2022-12-12T02:51:34.249Z,28.17
2022-12-12T02:52:07.067Z,29.45
2022-12-12T02:52:39.061Z,29.67
2022-12-12T02:53:10.942Z,30.88
2022-12-12T02:53:42.455Z,29.75
2022-12-12T02:54:16.680Z,31.25
2022-12-12T02:54:51.166Z,30.35
2022-12-12T02:55:22.662Z,27.83
2022-12-12T02:56:48.899Z,28.00
2022-12-12T02:57:25.714Z,28.30
2022-12-12T02:57:57.432Z,27.83
2022-12-12T02:58:29.306Z,27.23
2022-12-12T02:59:03.318Z,29.53
2022-12-12T02:59:40.292Z,31.02
2022-12-12T03:00:17.497Z,28.70
2022-12-12T03:01:11.459Z,30.35
2022-12-12T03:01:54.482Z,27.73
2022-12-12T03:02:41.820Z,28.52
2022-12-12T03:03:52.095Z,29.23
2022-12-12T03:05:20.379Z,27.77
2022-12-12T03:06:22.612Z,25.60
2022-12-12T03:07:30.522Z,26.65
2022-12-12T03:08:17.198Z,26.63
2022-12-12T03:09:06.798Z,27.25
2022-12-12T03:09:54.175Z,28.50
2022-12-12T03:10:47.960Z,28.95
2022-12-12T03:11:38.250Z,26.02
2022-12-12T03:13:01.841Z,26.48
2022-12-12T03:13:45.871Z,25.33
2022-12-12T03:14:26.944Z,29.08
2022-12-12T03:15:24.899Z,24.63
2022-12-12T03:16:15.031Z,31.30
2022-12-12T03:16:57.395Z,28.40
2022-12-12T03:17:36.331Z,26.85
2022-12-12T03:18:22.769Z,30.80
2022-12-12T03:19:11.099Z,28.65
2022-12-12T03:19:48.713Z,27.10
2022-12-12T03:20:28.629Z,31.27
2022-12-12T03:21:03.798Z,31.63
2022-12-12T03:21:47.600Z,29.98
2022-12-12T03:22:21.638Z,27.23
2022-12-12T03:23:08.832Z,28.60
2022-12-12T03:23:47.410Z,30.27
2022-12-12T03:24:34.621Z,30.35
2022-12-12T03:25:28.181Z,28.98
2022-12-12T03:26:06.384Z,32.03
2022-12-12T03:27:21.651Z,29.00
2022-12-12T03:27:55.742Z,30.02
2022-12-12T03:28:45.277Z,29.05
2022-12-12T03:29:24.377Z,28.75
2022-12-12T03:30:02.074Z,29.27
2022-12-12T03:30:41.291Z,27.27
2022-12-12T03:31:14.852Z,26.60
2022-12-12T03:31:54.072Z,31.63
2022-12-12T03:32:30.705Z,26.20
2022-12-12T03:33:25.799Z,30.00
2022-12-12T03:34:02.275Z,28.30
2022-12-12T03:34:39.757Z,27.55
2022-12-12T03:35:20.951Z,30.23
2022-12-12T03:36:17.205Z,27.52
2022-12-12T03:37:19.764Z,29.70
2022-12-12T03:37:57.389Z,31.35
2022-12-12T03:38:34.535Z,26.20
2022-12-12T03:39:15.584Z,27.38
2022-12-12T03:39:55.984Z,28.08
2022-12-12T03:40:51.991Z,29.45
2022-12-12T03:41:30.601Z,28.35
2022-12-12T03:42:24.423Z,30.02
2022-12-12T03:43:28.354Z,26.85
2022-12-12T03:44:13.527Z,29.13
2022-12-12T03:45:26.095Z,29.58
2022-12-12T03:46:12.697Z,27.08
2022-12-12T03:47:07.324Z,26.43
2022-12-12T03:47:54.754Z,29.25
2022-12-12T03:48:30.593Z,30.38
2022-12-12T03:49:10.612Z,32.75
2022-12-12T03:49:54.919Z,26.38
2022-12-12T03:50:40.280Z,31.40
2022-12-12T03:51:17.086Z,29.23
2022-12-12T03:51:55.367Z,29.13
2022-12-12T03:52:32.621Z,29.13
2022-12-12T03:53:17.154Z,30.05
2022-12-12T03:54:07.038Z,28.67
2022-12-12T03:54:48.933Z,30.13
2022-12-12T03:55:30.023Z,30.20
2022-12-12T03:56:12.963Z,27.88
2022-12-12T03:56:56.127Z,29.08
2022-12-12T03:57:41.467Z,27.98
2022-12-12T03:58:26.588Z,28.35
2022-12-12T03:59:05.995Z,29.02
2022-12-12T03:59:46.723Z,28.48
2022-12-12T04:00:18.574Z,27.95
2022-12-12T04:00:53.845Z,33.27
2022-12-12T04:01:36.743Z,28.67
2022-12-12T04:02:33.061Z,27.48
2022-12-12T04:03:29.876Z,30.42
2022-12-12T04:04:39.043Z,26.88
2022-12-12T04:05:21.348Z,27.48
2022-12-12T04:06:23.323Z,24.52
2022-12-12T04:07:13.973Z,27.63
2022-12-12T04:07:52.796Z,30.38
2022-12-12T04:08:24.589Z,27.98
2022-12-12T04:09:18.626Z,27.50
2022-12-12T04:10:09.066Z,27.95
2022-12-12T04:11:11.854Z,30.10
2022-12-12T04:12:14.780Z,31.00
2022-12-12T04:13:26.243Z,30.23
2022-12-12T04:14:07.538Z,28.08
2022-12-12T04:15:06.462Z,31.15
2022-12-12T04:15:53.086Z,28.80
2022-12-12T04:16:30.076Z,26.48
2022-12-12T04:17:05.098Z,28.30
2022-12-12T04:17:42.791Z,41.30
2022-12-12T04:18:41.263Z,31.85
2022-12-12T04:20:10.491Z,31.95
2022-12-12T04:21:16.396Z,28.60
2022-12-12T04:22:16.804Z,25.50
2022-12-12T04:23:15.855Z,25.75
2022-12-12T04:24:00.933Z,26.27
2022-12-12T04:24:38.887Z,26.77
2022-12-12T04:25:31.631Z,30.40
2022-12-12T04:26:27.653Z,26.67
2022-12-12T04:27:03.262Z,28.57
2022-12-12T04:27:41.907Z,29.70
2022-12-12T04:28:13.660Z,29.45
2022-12-12T04:29:13.066Z,29.38
2022-12-12T04:30:02.388Z,27.63
2022-12-12T04:30:36.376Z,27.40
2022-12-12T04:31:09.394Z,26.92
2022-12-12T04:31:48.480Z,28.60
2022-12-12T04:32:25.356Z,27.17
2022-12-12T04:33:11.112Z,34.63
2022-12-12T04:33:49.246Z,30.97
2022-12-12T04:34:53.812Z,32.00
2022-12-12T04:35:35.803Z,24.80
2022-12-12T04:36:10.541Z,29.77
2022-12-12T04:36:45.148Z,29.17
2022-12-12T04:37:22.928Z,28.48
2022-12-12T04:37:58.571Z,31.27
2022-12-12T04:38:30.411Z,27.67
2022-12-12T04:39:03.616Z,29.27
2022-12-12T04:39:36.823Z,31.42
2022-12-12T04:40:23.373Z,29.23
2022-12-12T04:40:58.034Z,27.38
2022-12-12T04:41:34.218Z,28.20
2022-12-12T04:42:10.046Z,31.30
2022-12-12T04:42:50.659Z,32.53
2022-12-12T04:43:24.777Z,29.65
2022-12-12T04:43:58.288Z,26.52
2022-12-12T04:44:32.550Z,31.10
2022-12-12T04:45:10.479Z,30.50
2022-12-12T04:45:47.299Z,28.05
2022-12-12T04:46:24.481Z,29.63
2022-12-12T04:46:58.121Z,27.92
2022-12-12T04:47:31.576Z,26.95
2022-12-12T04:48:05.688Z,31.98
2022-12-12T04:48:43.616Z,29.35
2022-12-12T04:49:20.020Z,28.95
2022-12-12T04:49:54.228Z,28.45
2022-12-12T04:50:28.424Z,28.70
2022-12-12T04:51:02.434Z,32.10
2022-12-12T04:51:44.374Z,30.27
2022-12-12T04:52:18.421Z,30.33
2022-12-12T04:52:52.667Z,27.27
2022-12-12T04:53:32.376Z,26.33
2022-12-12T04:54:32.574Z,28.08
2022-12-12T04:55:08.215Z,28.80
2022-12-12T04:55:48.502Z,29.10
2022-12-12T04:56:24.070Z,29.20
2022-12-12T04:57:00.249Z,29.95
2022-12-12T04:57:39.961Z,29.05
2022-12-12T04:58:11.832Z,28.27
2022-12-12T04:58:43.514Z,30.63
2022-12-12T04:59:15.101Z,28.98
2022-12-12T04:59:46.817Z,32.50
2022-12-12T05:00:20.083Z,30.17
2022-12-12T05:01:03.627Z,32.83
2022-12-12T05:02:02.763Z,32.47
2022-12-12T05:02:45.369Z,27.48
2022-12-12T05:03:28.863Z,26.25
2022-12-12T05:04:31.143Z,29.42
2022-12-12T05:05:05.692Z,26.38
2022-12-12T05:05:49.303Z,28.70
2022-12-12T05:06:29.046Z,28.85
2022-12-12T05:07:09.363Z,30.50
2022-12-12T05:07:43.975Z,32.40
2022-12-12T05:08:29.211Z,30.35
2022-12-12T05:09:01.751Z,29.77
2022-12-12T05:09:34.228Z,30.70
2022-12-12T05:10:14.646Z,31.50
2022-12-12T05:10:50.853Z,31.13
2022-12-12T05:11:22.644Z,26.40
2022-12-12T05:11:54.351Z,27.67
2022-12-12T05:12:26.532Z,29.67
2022-12-12T05:13:00.598Z,29.35
2022-12-12T05:13:39.800Z,32.17
2022-12-12T05:14:11.636Z,29.92
2022-12-12T05:14:43.150Z,29.63
2022-12-12T05:15:17.200Z,32.38
2022-12-12T05:15:50.854Z,30.10
2022-12-12T05:16:29.677Z,31.75
2022-12-12T05:17:06.930Z,28.08
2022-12-12T05:17:52.244Z,29.93
2022-12-12T05:18:24.250Z,30.33
2022-12-12T05:18:56.062Z,29.58
2022-12-12T05:19:27.587Z,30.73
2022-12-12T05:19:59.114Z,29.75
2022-12-12T05:20:30.732Z,30.50
2022-12-12T05:21:02.145Z,31.30
2022-12-12T05:21:33.552Z,32.08
2022-12-12T05:22:04.949Z,28.55
2022-12-12T05:22:36.379Z,30.02
2022-12-12T05:23:08.091Z,31.70
2022-12-12T05:23:39.765Z,34.05
2022-12-12T05:24:11.449Z,31.13
2022-12-12T05:24:42.952Z,31.75
2022-12-12T05:25:14.801Z,31.98
2022-12-12T05:25:46.548Z,30.10
2022-12-12T05:26:34.246Z,31.25
2022-12-12T05:27:05.999Z,27.73
2022-12-12T05:27:37.581Z,31.67
2022-12-12T05:28:10.751Z,28.75
2022-12-12T05:28:42.183Z,29.80
2022-12-12T05:29:13.765Z,31.13
2022-12-12T05:29:45.168Z,27.88
2022-12-12T05:30:17.315Z,31.83
2022-12-12T05:30:48.813Z,33.15
2022-12-12T05:31:20.609Z,32.03
2022-12-12T05:31:52.107Z,30.58
2022-12-12T05:32:23.447Z,31.02
2022-12-12T05:32:55.047Z,30.02
2022-12-12T05:33:26.669Z,30.63
2022-12-12T05:33:58.129Z,30.20
2022-12-12T05:34:29.689Z,31.77
2022-12-12T05:35:01.177Z,28.95
2022-12-12T05:35:33.929Z,29.20
2022-12-12T05:36:05.624Z,30.60
2022-12-12T05:36:37.048Z,28.63
2022-12-12T05:37:08.511Z,31.00
2022-12-12T05:37:40.459Z,35.30
2022-12-12T05:38:11.927Z,32.90
2022-12-12T05:38:43.804Z,31.40
2022-12-12T05:39:15.291Z,27.83
2022-12-12T05:39:46.706Z,30.83
2022-12-12T05:40:19.692Z,31.77
2022-12-12T05:40:51.135Z,31.15
2022-12-12T05:41:23.064Z,33.03
2022-12-12T05:41:54.501Z,30.83
2022-12-12T05:42:25.994Z,29.30
2022-12-12T05:42:57.472Z,31.83
2022-12-12T05:43:29.176Z,30.88
2022-12-12T05:44:00.534Z,30.13
2022-12-12T05:44:32.091Z,34.07
2022-12-12T05:45:05.114Z,33.80
2022-12-12T05:45:36.502Z,29.90
2022-12-12T05:46:09.488Z,31.17
2022-12-12T05:46:40.909Z,34.45
2022-12-12T05:47:12.338Z,32.70
2022-12-12T05:47:43.925Z,30.17
2022-12-12T05:48:19.579Z,33.50
2022-12-12T05:48:54.062Z,30.45
2022-12-12T05:49:25.465Z,32.08
2022-12-12T05:49:56.861Z,30.93
2022-12-12T05:50:28.224Z,30.83
2022-12-12T05:51:03.031Z,32.60
2022-12-12T05:51:34.462Z,32.05
2022-12-12T05:52:06.308Z,29.48
2022-12-12T05:52:37.756Z,33.10
2022-12-12T05:53:09.472Z,29.67
2022-12-12T05:53:43.246Z,34.22
2022-12-12T05:54:14.876Z,30.02
2022-12-12T05:54:46.355Z,29.05
2022-12-12T05:55:17.910Z,30.17
2022-12-12T05:55:52.543Z,32.22
2022-12-12T05:56:23.916Z,32.00
2022-12-12T05:56:55.349Z,28.73
2022-12-12T05:57:26.984Z,31.58
2022-12-12T05:57:58.618Z,29.05
2022-12-12T05:58:30.511Z,31.80
2022-12-12T05:59:01.968Z,32.67
2022-12-12T05:59:33.440Z,28.98
2022-12-12T06:00:05.551Z,32.40
2022-12-12T06:00:37.037Z,32.07
2022-12-12T06:01:08.842Z,31.05
2022-12-12T06:01:40.275Z,32.25
2022-12-12T06:02:12.345Z,32.65
2022-12-12T06:02:43.926Z,32.22
2022-12-12T06:03:16.409Z,31.90
2022-12-12T06:03:47.897Z,30.95
2022-12-12T06:04:19.457Z,32.10
2022-12-12T06:04:50.901Z,32.13
2022-12-12T06:05:22.531Z,31.83
2022-12-12T06:05:53.997Z,30.83
2022-12-12T06:06:25.381Z,34.28
2022-12-12T06:06:56.781Z,34.08
2022-12-12T06:07:28.216Z,30.15
2022-12-12T06:07:59.710Z,34.03
2022-12-12T06:08:31.293Z,35.17
2022-12-12T06:09:02.963Z,35.53
2022-12-12T06:09:34.862Z,35.58
2022-12-12T06:10:07.055Z,32.85
2022-12-12T06:10:39.022Z,29.63
2022-12-12T06:11:10.586Z,31.80
2022-12-12T06:11:42.025Z,32.70
2022-12-12T06:12:13.645Z,32.25
2022-12-12T06:12:45.052Z,28.50
2022-12-12T06:13:16.505Z,32.20
2022-12-12T06:13:47.943Z,31.80
2022-12-12T06:14:19.628Z,30.23
2022-12-12T06:14:51.165Z,34.67
2022-12-12T06:15:22.619Z,38.40
2022-12-12T06:15:54.109Z,35.38
2022-12-12T06:16:25.683Z,29.83
2022-12-12T06:16:57.371Z,31.85
2022-12-12T06:18:17.745Z,32.35
2022-12-12T06:18:56.422Z,36.45
2022-12-12T06:19:27.886Z,33.38
2022-12-12T06:19:59.359Z,33.95
2022-12-12T06:20:31.361Z,37.08
2022-12-12T06:21:05.283Z,34.00
2022-12-12T06:21:36.662Z,35.05
2022-12-12T06:22:08.131Z,32.73
2022-12-12T06:22:39.783Z,33.45
2022-12-12T06:23:11.204Z,36.42
2022-12-12T06:23:43.102Z,37.22
2022-12-12T06:24:14.843Z,38.85
2022-12-12T06:24:46.503Z,35.83
2022-12-12T06:25:18.005Z,32.60
2022-12-12T06:25:52.257Z,33.97
2022-12-12T06:26:23.779Z,35.95
2022-12-12T06:26:55.203Z,32.58
2022-12-12T06:27:26.907Z,33.67
2022-12-12T06:27:59.267Z,36.25
2022-12-12T06:28:32.721Z,35.42
2022-12-12T06:29:04.404Z,37.92
2022-12-12T06:29:35.895Z,38.95
2022-12-12T06:30:08.189Z,36.95
2022-12-12T06:30:39.828Z,36.53
2022-12-12T06:31:12.545Z,35.20
2022-12-12T06:31:44.595Z,35.30
2022-12-12T06:32:16.002Z,41.20
2022-12-12T06:32:47.342Z,37.20
2022-12-12T06:33:18.732Z,39.22
2022-12-12T06:33:50.588Z,38.42
2022-12-12T06:34:22.055Z,40.78
2022-12-12T06:34:53.432Z,36.80
2022-12-12T06:35:25.018Z,43.13
2022-12-12T06:36:01.458Z,40.35
2022-12-12T06:36:32.909Z,38.20
2022-12-12T06:37:07.171Z,37.65
2022-12-12T06:37:39.816Z,38.05
2022-12-12T06:38:11.261Z,37.30
2022-12-12T06:38:42.957Z,40.67
2022-12-12T06:39:14.581Z,37.22
2022-12-12T06:39:46.878Z,35.28
2022-12-12T06:40:18.431Z,39.58
2022-12-12T06:40:50.131Z,32.97
2022-12-12T06:41:23.817Z,35.85
2022-12-12T06:41:55.499Z,39.40
2022-12-12T06:42:26.935Z,38.75
2022-12-12T06:42:58.272Z,36.53
2022-12-12T06:43:29.611Z,41.37
2022-12-12T06:44:01.130Z,38.53
2022-12-12T06:44:32.693Z,35.13
2022-12-12T06:45:04.468Z,34.40
2022-12-12T06:45:35.995Z,34.00
2022-12-12T06:46:12.457Z,36.58
2022-12-12T06:46:43.917Z,31.10
2022-12-12T06:47:15.464Z,35.50
2022-12-12T06:47:47.061Z,34.08
2022-12-12T06:48:18.485Z,35.97
2022-12-12T06:48:50.591Z,35.30
2022-12-12T06:49:21.940Z,36.10
2022-12-12T06:49:53.330Z,32.33
2022-12-12T06:50:24.753Z,36.53
2022-12-12T06:50:56.430Z,34.97
2022-12-12T06:51:32.047Z,35.28
2022-12-12T06:52:03.663Z,30.88
2022-12-12T06:52:35.062Z,33.70
2022-12-12T06:53:06.509Z,31.35
2022-12-12T06:53:37.933Z,34.53
2022-12-12T06:54:13.513Z,36.13
2022-12-12T06:54:44.872Z,39.38
2022-12-12T06:55:16.281Z,38.17
2022-12-12T06:55:47.810Z,32.55
2022-12-12T06:56:22.102Z,31.42
2022-12-12T06:56:53.696Z,37.17
2022-12-12T06:57:25.297Z,36.13
2022-12-12T06:57:56.731Z,36.88
2022-12-12T06:58:28.155Z,32.95
2022-12-12T06:58:59.943Z,34.28
2022-12-12T06:59:31.439Z,34.07
2022-12-12T07:00:04.029Z,30.65
2022-12-12T07:00:35.550Z,34.85
2022-12-12T07:01:07.620Z,34.60
2022-12-12T07:01:39.221Z,35.72
2022-12-12T07:02:11.855Z,33.58
2022-12-12T07:02:43.381Z,35.20
2022-12-12T07:03:14.864Z,32.50
2022-12-12T07:03:46.543Z,39.75
2022-12-12T07:04:18.121Z,31.23
2022-12-12T07:04:49.782Z,33.17
2022-12-12T07:05:21.388Z,38.70
2022-12-12T07:05:52.758Z,33.17
2022-12-12T07:06:24.827Z,37.50
2022-12-12T07:06:56.338Z,33.28
2022-12-12T07:07:27.694Z,38.03
2022-12-12T07:08:02.635Z,34.65
2022-12-12T07:08:35.353Z,33.78
2022-12-12T07:09:08.130Z,34.45
2022-12-12T07:09:39.573Z,34.40
2022-12-12T07:10:11.002Z,34.00
2022-12-12T07:10:44.089Z,34.65
2022-12-12T07:11:18.449Z,32.70
2022-12-12T07:11:49.935Z,32.78
2022-12-12T07:12:21.340Z,31.33
2022-12-12T07:12:57.292Z,32.47
2022-12-12T07:13:29.164Z,33.28
2022-12-12T07:14:03.700Z,32.83
2022-12-12T07:14:35.133Z,34.20
2022-12-12T07:15:07.423Z,30.10
2022-12-12T07:15:43.581Z,37.10
2022-12-12T07:16:15.477Z,33.13
2022-12-12T07:16:46.921Z,33.42
2022-12-12T07:17:18.338Z,32.38
2022-12-12T07:17:53.549Z,35.72
2022-12-12T07:18:25.006Z,36.63
2022-12-12T07:18:56.432Z,32.53
2022-12-12T07:19:27.813Z,37.63
2022-12-12T07:19:59.355Z,37.70
2022-12-12T07:20:30.878Z,36.63
2022-12-12T07:21:06.607Z,38.87
2022-12-12T07:21:38.190Z,36.15
2022-12-12T07:22:10.670Z,35.60
2022-12-12T07:22:42.875Z,35.40
2022-12-12T07:23:14.919Z,34.50
2022-12-12T07:23:46.912Z,33.42
2022-12-12T07:24:18.389Z,34.40
2022-12-12T07:24:51.087Z,34.38
2022-12-12T07:25:22.546Z,38.20
2022-12-12T07:25:53.985Z,33.45
2022-12-12T07:26:25.590Z,33.00
2022-12-12T07:26:57.007Z,35.63
2022-12-12T07:27:28.414Z,39.63
2022-12-12T07:27:59.804Z,38.63
2022-12-12T07:28:31.536Z,36.70
2022-12-12T07:29:05.218Z,39.63
2022-12-12T07:29:36.624Z,39.95
2022-12-12T07:30:08.792Z,37.58
2022-12-12T07:30:47.544Z,38.83
2022-12-12T07:31:22.046Z,32.63
2022-12-12T07:31:53.616Z,33.27
2022-12-12T07:32:25.098Z,36.30
2022-12-12T07:32:56.582Z,33.80
2022-12-12T07:33:39.498Z,35.03
2022-12-12T07:34:12.590Z,40.72
2022-12-12T07:34:44.189Z,36.45
2022-12-12T07:35:15.795Z,33.38
2022-12-12T07:35:47.943Z,36.42
2022-12-12T07:36:20.104Z,37.90
2022-12-12T07:36:51.514Z,36.00
2022-12-12T07:37:22.909Z,41.70
2022-12-12T07:37:55.665Z,34.50
2022-12-12T07:38:27.907Z,33.50
2022-12-12T07:38:59.359Z,38.72
2022-12-12T07:39:32.108Z,35.70
2022-12-12T07:40:04.240Z,35.90
2022-12-12T07:40:36.364Z,33.17
2022-12-12T07:41:10.726Z,36.53
2022-12-12T07:41:42.583Z,34.92
2022-12-12T07:42:14.131Z,32.83
2022-12-12T07:42:45.538Z,39.73
2022-12-12T07:43:17.161Z,37.80
2022-12-12T07:43:49.765Z,38.08
2022-12-12T07:44:21.362Z,36.72
2022-12-12T07:44:52.805Z,37.35
2022-12-12T07:45:24.881Z,33.95
2022-12-12T07:45:56.607Z,35.78
2022-12-12T07:46:28.107Z,30.63
2022-12-12T07:46:59.675Z,35.28
2022-12-12T07:47:31.979Z,36.92
2022-12-12T07:48:03.656Z,35.00
2022-12-12T07:48:35.701Z,34.33
2022-12-12T07:49:07.171Z,35.67
2022-12-12T07:49:38.571Z,34.58
2022-12-12T07:50:10.790Z,40.35
2022-12-12T07:50:42.580Z,35.85